This is the latest recevied weather packets stored in our database for station/object K3MV-13. If no packets are shown the sender has not sent any weather packets the latest 10 day(s).
| Time | Temp. | Humidity | Pressure | Rain* | Wind** | Luminosity | Snow |
|---|---|---|---|---|---|---|---|
| 1777469640 | 13.33° C | 93% | 1010.9 hPa | 0 mm | - | 96 W/m² | - |
| 1777469335 | 13.33° C | 94% | 1011 hPa | 0 mm | - | 75 W/m² | - |
| 1777469031 | 13.33° C | 94% | 1011 hPa | 0 mm | - | 79 W/m² | - |
| 1777468726 | 12.78° C | 95% | 1011.3 hPa | 0 mm | - | 62 W/m² | - |
| 1777468422 | 12.78° C | 96% | 1011.4 hPa | 0 mm | - | 50 W/m² | - |
| 1777468118 | 12.78° C | 96% | 1011.5 hPa | 0 mm | - | 44 W/m² | - |
| 1777467815 | 12.78° C | 97% | 1011.4 hPa | 0 mm | - | 46 W/m² | - |
| 1777467510 | 12.22° C | 97% | 1011.5 hPa | 0 mm | - | 39 W/m² | - |
| 1777467206 | 12.22° C | 97% | 1011.8 hPa | 0 mm | - | 38 W/m² | - |
| 1777466903 | 12.22° C | 97% | 1011.6 hPa | 0 mm | - | 38 W/m² | - |
| 1777466601 | 12.22° C | 97% | 1011.5 hPa | 0 mm | - | 41 W/m² | - |
| 1777466298 | 12.22° C | 97% | 1011.4 hPa | 0 mm | - | 45 W/m² | - |
| 1777465994 | 12.22° C | 98% | 1011.4 hPa | 0 mm | - | 49 W/m² | - |
| 1777465690 | 11.67° C | 97% | 1011.6 hPa | 0 mm | - | 49 W/m² | - |
| 1777465386 | 11.67° C | 97% | 1011.6 hPa | 0 mm | - | 48 W/m² | - |
| 1777465084 | 12.22° C | 97% | 1011.7 hPa | 0 mm | - | 44 W/m² | - |
| 1777464780 | 12.22° C | 98% | 1011.8 hPa | 0 mm | - | 38 W/m² | - |
| 1777464476 | 12.22° C | 98% | 1011.8 hPa | 0 mm | - | 36 W/m² | - |
| 1777464172 | 11.67° C | 98% | 1012 hPa | 0 mm | - | 29 W/m² | - |
| 1777463871 | 11.67° C | 98% | 1012.2 hPa | 0 mm | - | 30 W/m² | - |
| 1777463568 | 11.11° C | 98% | 1012.1 hPa | 0 mm | - | 34 W/m² | - |
| 1777463262 | 11.11° C | 98% | 1011.7 hPa | 0 mm | - | 33 W/m² | - |
| 1777462959 | 11.11° C | 98% | 1011.9 hPa | 0 mm | - | 28 W/m² | - |
| 1777462655 | 11.11° C | 98% | 1011.7 hPa | 0 mm | - | 29 W/m² | - |
| 1777462350 | 11.11° C | 98% | 1011.9 hPa | 0 mm | - | 11 W/m² | - |
* Rain latest hour (hover to see other rain measurements)
** Current wind speed in m/s (hover to see current wind gust speed)